createdAt,value
2023-05-03T10:19:18.541Z,1.35
2023-05-03T10:22:08.464Z,2.15
2023-05-03T10:24:36.950Z,1.30
2023-05-03T10:27:08.494Z,1.27
2023-05-03T10:29:36.030Z,2.10
2023-05-03T10:32:26.553Z,1.60
2023-05-03T10:35:12.975Z,1.48
2023-05-03T10:37:43.884Z,1.50
2023-05-03T10:40:15.862Z,1.25
2023-05-03T10:42:49.910Z,1.70
2023-05-03T10:45:31.022Z,2.03
2023-05-03T10:48:13.164Z,2.80
2023-05-03T10:50:41.333Z,2.47
2023-05-03T10:53:09.739Z,1.80
2023-05-03T10:55:36.630Z,2.05
2023-05-03T10:58:06.616Z,1.70
2023-05-03T11:00:33.696Z,1.80
2023-05-03T11:03:14.051Z,2.05
2023-05-03T11:05:42.872Z,1.70
2023-05-03T11:08:19.651Z,1.67
2023-05-03T11:10:47.991Z,1.58
2023-05-03T11:13:15.537Z,1.05
2023-05-03T11:15:42.752Z,1.88
2023-05-03T11:18:13.657Z,2.10
2023-05-03T11:20:40.968Z,1.52
2023-05-03T11:23:09.021Z,1.60
2023-05-03T11:25:36.097Z,1.88
2023-05-03T11:28:07.061Z,1.17
2023-05-03T11:30:35.979Z,1.40
2023-05-03T11:33:03.317Z,1.50
2023-05-03T11:35:30.736Z,1.63
2023-05-03T11:37:57.764Z,1.55
2023-05-03T11:40:24.715Z,1.33
2023-05-03T11:42:59.054Z,1.83
2023-05-03T11:45:41.592Z,2.05
2023-05-03T11:50:55.920Z,2.17
2023-05-03T11:53:27.072Z,1.70
2023-05-03T11:55:54.980Z,2.08
2023-05-03T11:58:26.593Z,2.15
2023-05-03T12:00:56.386Z,2.10
2023-05-03T12:03:31.636Z,2.30
2023-05-03T12:06:00.571Z,1.70
2023-05-03T12:08:31.288Z,1.83
2023-05-03T12:11:02.657Z,1.65
2023-05-03T12:13:41.527Z,2.50
2023-05-03T12:16:13.319Z,1.50
2023-05-03T12:18:57.932Z,1.90
2023-05-03T12:23:57.341Z,2.17
2023-05-03T12:26:27.383Z,1.98
2023-05-03T12:28:56.903Z,2.30
2023-05-03T12:31:24.455Z,1.95
2023-05-03T12:36:24.886Z,1.90
2023-05-03T12:38:56.194Z,1.75
2023-05-03T12:43:58.838Z,1.55
2023-05-03T12:46:34.768Z,1.67
2023-05-03T12:49:06.433Z,1.17
2023-05-03T12:51:34.379Z,1.48
2023-05-03T12:54:02.181Z,1.52
2023-05-03T12:56:32.793Z,1.75
2023-05-03T13:04:27.627Z,1.73
2023-05-03T13:06:47.627Z,1.65
2023-05-03T13:09:20.794Z,1.70
2023-05-03T13:11:52.919Z,1.95
2023-05-03T13:14:20.571Z,1.88
2023-05-03T13:16:49.157Z,1.83
2023-05-03T13:19:16.468Z,1.80
2023-05-03T13:21:43.402Z,2.35
2023-05-03T13:24:12.289Z,1.60
2023-05-03T13:26:39.128Z,1.60
2023-05-03T13:29:06.106Z,2.35
2023-05-03T13:31:33.264Z,2.03
2023-05-03T13:34:00.210Z,1.77
2023-05-03T13:36:28.637Z,1.95
2023-05-03T13:38:55.765Z,1.98
2023-05-03T13:41:23.067Z,2.17
2023-05-03T13:43:50.024Z,1.10
2023-05-03T13:46:17.599Z,1.70
2023-05-03T13:48:44.723Z,1.35
2023-05-03T13:51:13.075Z,2.15
2023-05-03T13:53:40.457Z,1.40
2023-05-03T13:56:07.813Z,1.50
2023-05-03T13:58:36.208Z,1.40
2023-05-03T14:01:03.783Z,1.50
2023-05-03T14:03:32.600Z,1.23
2023-05-03T14:05:59.679Z,2.00
2023-05-03T14:08:26.710Z,1.67
2023-05-03T14:10:54.256Z,2.13
2023-05-03T14:13:22.007Z,1.52
2023-05-03T14:15:49.080Z,1.60
2023-05-03T14:18:16.283Z,1.80
2023-05-03T14:20:43.411Z,1.52
2023-05-03T14:23:10.621Z,1.85
2023-05-03T14:25:37.486Z,1.23
2023-05-03T14:28:05.427Z,1.98
2023-05-03T14:30:33.681Z,1.52
2023-05-03T14:33:00.951Z,1.52
2023-05-03T14:35:28.039Z,2.30
2023-05-03T14:37:54.949Z,2.35
2023-05-03T14:40:21.876Z,2.22
2023-05-03T14:42:49.003Z,2.53
2023-05-03T14:45:16.088Z,2.00
2023-05-03T14:47:43.135Z,1.77
2023-05-03T14:50:12.988Z,2.10
2023-05-03T14:52:39.861Z,1.73
2023-05-03T14:55:07.782Z,2.47
2023-05-03T14:57:34.850Z,2.60
2023-05-03T15:00:04.479Z,2.42
2023-05-03T15:02:31.839Z,3.50
2023-05-03T15:04:58.877Z,2.75
2023-05-03T15:07:25.866Z,2.35
2023-05-03T15:09:52.712Z,2.70
2023-05-03T15:12:19.556Z,2.20
2023-05-03T15:14:46.847Z,2.50
2023-05-03T15:17:13.883Z,2.20
2023-05-03T15:19:41.034Z,2.80
2023-05-03T15:22:08.095Z,2.42
2023-05-03T15:24:35.092Z,2.90
2023-05-03T15:27:04.997Z,3.70
2023-05-03T15:29:31.908Z,3.60
2023-05-03T15:31:58.860Z,2.78
2023-05-03T15:34:26.200Z,2.53
2023-05-03T15:36:53.236Z,4.20
2023-05-03T15:39:20.161Z,2.90
2023-05-03T15:41:47.448Z,3.10
2023-05-03T15:44:15.075Z,3.28
2023-05-03T15:46:43.061Z,3.58
2023-05-03T15:49:11.874Z,3.00
2023-05-03T15:51:39.326Z,2.58
2023-05-03T15:54:09.219Z,3.05
2023-05-03T15:56:37.664Z,2.63
2023-05-03T15:59:05.369Z,3.05
2023-05-03T16:01:32.191Z,2.20
2023-05-03T16:03:59.085Z,3.10
2023-05-03T16:06:26.046Z,2.08
2023-05-03T16:08:52.905Z,2.45
2023-05-03T16:11:20.159Z,4.05
2023-05-03T16:13:46.985Z,5.63
2023-05-03T16:16:13.916Z,3.70
2023-05-03T16:18:40.861Z,3.53
2023-05-03T16:21:07.735Z,3.92
2023-05-03T16:23:36.707Z,4.30
2023-05-03T16:26:14.494Z,2.90
2023-05-03T16:28:42.692Z,2.40
2023-05-03T16:31:09.684Z,1.83
2023-05-03T16:33:37.620Z,2.58
2023-05-03T16:36:04.982Z,1.48
2023-05-03T16:38:32.246Z,1.27
2023-05-03T16:41:02.281Z,1.88
2023-05-03T16:43:30.139Z,2.72
2023-05-03T16:46:00.807Z,2.70
2023-05-03T16:48:29.471Z,2.45
2023-05-03T16:50:56.793Z,2.35
2023-05-03T16:53:26.118Z,2.83
2023-05-03T16:55:54.047Z,2.05
2023-05-03T16:58:21.373Z,1.20
2023-05-03T17:00:48.360Z,1.38
2023-05-03T17:03:15.456Z,0.82
2023-05-03T17:05:42.566Z,0.85
2023-05-03T17:08:09.569Z,1.30
2023-05-03T17:10:38.609Z,1.60
2023-05-03T17:13:09.531Z,0.77
2023-05-03T17:15:37.056Z,1.15
2023-05-03T17:18:05.027Z,1.33
2023-05-03T17:20:33.282Z,1.23
2023-05-03T17:23:00.537Z,1.70
2023-05-03T17:25:27.476Z,1.20
2023-05-03T17:27:54.440Z,1.67
2023-05-03T17:30:24.302Z,1.23
2023-05-03T17:32:51.323Z,1.67
2023-05-03T17:35:18.376Z,1.20
2023-05-03T17:37:48.301Z,1.33
2023-05-03T17:40:15.351Z,1.00
2023-05-03T17:42:42.306Z,1.20
2023-05-03T17:45:12.064Z,1.15
2023-05-03T17:47:39.048Z,1.75
2023-05-03T17:50:06.868Z,1.45
2023-05-03T17:52:33.814Z,1.52
2023-05-03T17:55:01.135Z,1.85
2023-05-03T17:57:28.064Z,1.15
2023-05-03T17:59:54.877Z,1.20
2023-05-03T18:02:21.746Z,1.33
2023-05-03T18:04:48.667Z,1.10
2023-05-03T18:07:15.733Z,1.25
2023-05-03T18:09:42.733Z,1.45
2023-05-03T18:12:09.517Z,1.70
2023-05-03T18:14:36.826Z,2.47
2023-05-03T18:17:03.748Z,1.63
2023-05-03T18:19:31.311Z,1.83
2023-05-03T18:21:58.262Z,1.30
2023-05-03T18:24:25.145Z,1.38
2023-05-03T18:26:52.182Z,1.13
2023-05-03T18:29:19.041Z,1.40
2023-05-03T18:31:46.118Z,1.50
2023-05-03T18:34:13.097Z,1.38
2023-05-03T18:36:40.262Z,1.23
2023-05-03T18:39:09.037Z,1.80
2023-05-03T18:41:36.233Z,1.70
2023-05-03T18:44:04.148Z,1.73
2023-05-03T18:46:31.261Z,1.35
2023-05-03T18:48:58.247Z,2.05
2023-05-03T18:51:25.915Z,1.33
2023-05-03T18:53:53.765Z,1.45
2023-05-03T18:56:21.555Z,1.60
2023-05-03T18:58:49.281Z,1.75
2023-05-03T19:01:16.861Z,2.03
2023-05-03T19:03:43.793Z,2.33
2023-05-03T19:06:12.180Z,1.98
2023-05-03T19:08:39.678Z,1.80
2023-05-03T19:11:08.250Z,1.60
2023-05-03T19:13:36.762Z,2.15
2023-05-03T19:16:04.252Z,2.53
2023-05-03T19:18:32.953Z,2.83
2023-05-03T19:21:02.032Z,2.50
2023-05-03T19:23:29.918Z,2.50
2023-05-03T19:26:00.888Z,2.08
2023-05-03T19:28:28.925Z,2.42
2023-05-03T19:30:58.574Z,1.80
2023-05-03T19:33:26.678Z,2.30
2023-05-03T19:35:54.955Z,1.20
2023-05-03T19:38:24.582Z,1.92
2023-05-03T19:40:59.136Z,1.80
2023-05-03T19:43:26.442Z,1.90
2023-05-03T19:45:54.517Z,1.33
2023-05-03T19:48:21.716Z,1.10
2023-05-03T19:50:48.660Z,1.35
2023-05-03T19:53:15.620Z,1.15
2023-05-03T19:55:42.480Z,1.30
2023-05-03T19:58:09.362Z,1.30
2023-05-03T20:00:36.230Z,1.30
2023-05-03T20:03:06.094Z,1.33
2023-05-03T20:05:33.254Z,1.17
2023-05-03T20:08:00.275Z,1.60
